createdAt,value
2019-04-05T00:01:07.593Z,6.90
2019-04-05T00:03:33.755Z,6.90
2019-04-05T00:05:59.945Z,7.00
2019-04-05T00:08:26.026Z,7.00
2019-04-05T00:10:54.165Z,7.00
2019-04-05T00:13:20.190Z,6.90
2019-04-05T00:15:46.198Z,7.00
2019-04-05T00:18:12.317Z,7.00
2019-04-05T00:20:39.977Z,7.00
2019-04-05T00:23:08.051Z,7.10
2019-04-05T00:25:34.153Z,7.30
2019-04-05T00:28:02.263Z,7.30
2019-04-05T00:30:28.512Z,7.30
2019-04-05T00:32:54.580Z,7.40
2019-04-05T00:35:21.868Z,7.40
2019-04-05T00:37:48.119Z,7.40
2019-04-05T00:40:14.859Z,7.30
2019-04-05T00:42:40.921Z,7.30
2019-04-05T00:45:07.781Z,7.30
2019-04-05T00:47:34.027Z,7.20
2019-04-05T00:50:00.063Z,7.10
2019-04-05T00:52:28.106Z,7.10
2019-04-05T00:54:56.308Z,7.20
2019-04-05T00:57:23.399Z,7.20
2019-04-05T00:59:49.448Z,7.20
2019-04-05T01:02:17.648Z,7.10
2019-04-05T01:04:44.816Z,7.10
2019-04-05T01:07:10.886Z,7.10
2019-04-05T01:09:37.009Z,7.10
2019-04-05T01:12:04.312Z,7.10
2019-04-05T01:14:31.307Z,7.00
2019-04-05T01:16:57.442Z,7.00
2019-04-05T01:19:27.294Z,7.00
2019-04-05T01:21:54.638Z,7.10
2019-04-05T01:24:21.388Z,7.10
2019-04-05T01:26:48.270Z,7.00
2019-04-05T01:29:14.964Z,7.10
2019-04-05T01:31:41.213Z,7.20
2019-04-05T01:34:07.308Z,7.40
2019-04-05T01:36:33.343Z,7.50
2019-04-05T01:38:59.412Z,7.50
2019-04-05T01:41:25.704Z,7.50
2019-04-05T01:43:51.947Z,7.30
2019-04-05T01:46:20.714Z,7.30
2019-04-05T01:48:46.933Z,7.40
2019-04-05T01:51:18.128Z,7.30
2019-04-05T01:53:44.108Z,7.20
2019-04-05T01:56:10.151Z,7.10
2019-04-05T01:58:37.291Z,7.10
2019-04-05T02:01:03.504Z,7.00
2019-04-05T02:03:29.642Z,6.90
2019-04-05T02:05:56.771Z,6.90
2019-04-05T02:08:22.814Z,7.10
2019-04-05T02:10:48.923Z,7.20
2019-04-05T02:13:15.130Z,7.30
2019-04-05T02:15:41.399Z,7.40
2019-04-05T02:18:09.107Z,7.50
2019-04-05T02:20:36.154Z,7.60
2019-04-05T02:23:02.308Z,7.50
2019-04-05T02:25:30.452Z,7.50
2019-04-05T02:27:56.682Z,7.50
2019-04-05T02:30:23.089Z,7.50
2019-04-05T02:32:49.266Z,7.50
2019-04-05T02:35:17.424Z,7.50
2019-04-05T02:37:43.450Z,7.40
2019-04-05T02:40:14.977Z,7.30
2019-04-05T02:42:43.531Z,7.00
2019-04-05T02:45:11.052Z,6.90
2019-04-05T02:47:39.883Z,6.80
2019-04-05T02:50:08.741Z,6.70
2019-04-05T02:52:35.621Z,6.60
2019-04-05T02:55:02.091Z,6.60
2019-04-05T02:57:31.264Z,6.60
2019-04-05T02:59:57.825Z,6.60
2019-04-05T03:02:24.158Z,6.60
2019-04-05T03:04:51.984Z,6.80
2019-04-05T03:07:18.010Z,7.00
2019-04-05T03:09:44.123Z,7.10
2019-04-05T03:12:10.506Z,7.20
2019-04-05T03:14:38.833Z,7.30
2019-04-05T03:17:07.569Z,7.30
2019-04-05T03:19:35.796Z,7.20
2019-04-05T03:22:04.153Z,7.00
2019-04-05T03:24:35.082Z,6.80
2019-04-05T03:27:04.909Z,6.70
2019-04-05T03:29:31.038Z,6.60
2019-04-05T03:31:57.418Z,6.60
2019-04-05T03:34:23.707Z,6.60
2019-04-05T03:36:51.817Z,6.50
2019-04-05T03:39:19.032Z,6.60
2019-04-05T03:41:46.748Z,6.60
2019-04-05T03:44:12.827Z,6.60
2019-04-05T03:46:56.425Z,6.60
2019-04-05T03:49:12.915Z,6.70
2019-04-05T03:51:39.237Z,6.80
2019-04-05T03:54:06.744Z,6.90
2019-04-05T03:56:37.784Z,6.90
2019-04-05T03:59:02.202Z,6.90
2019-04-05T04:01:28.277Z,6.80
2019-04-05T04:03:54.411Z,6.70
2019-04-05T04:06:21.075Z,6.50
2019-04-05T04:08:47.197Z,6.50
2019-04-05T04:11:14.475Z,6.60
2019-04-05T04:13:40.740Z,6.60
2019-04-05T04:16:07.214Z,6.60
2019-04-05T04:18:33.359Z,6.70
2019-04-05T04:21:03.235Z,6.70
2019-04-05T04:23:30.534Z,6.70
2019-04-05T04:26:04.726Z,6.70
2019-04-05T04:28:31.537Z,6.60
2019-04-05T04:30:57.785Z,6.60
2019-04-05T04:33:26.000Z,6.70
2019-04-05T04:35:55.446Z,6.70
2019-04-05T04:38:22.334Z,6.70
2019-04-05T04:40:49.437Z,6.70
2019-04-05T04:43:15.672Z,6.70
2019-04-05T04:45:42.912Z,6.70
2019-04-05T04:48:12.958Z,6.90
2019-04-05T04:50:41.815Z,7.00
2019-04-05T04:53:08.697Z,7.10
2019-04-05T04:55:38.074Z,7.20
2019-04-05T04:58:04.303Z,7.20
2019-04-05T05:00:33.073Z,7.30
2019-04-05T05:03:05.016Z,7.30
2019-04-05T05:05:31.371Z,7.30
2019-04-05T05:07:57.420Z,7.30
2019-04-05T05:10:23.653Z,7.30
2019-04-05T05:12:57.817Z,7.40
2019-04-05T05:15:27.008Z,7.40
2019-04-05T05:17:58.628Z,7.40
2019-04-05T05:20:20.153Z,7.40
2019-04-05T05:22:47.570Z,7.30
2019-04-05T05:25:14.833Z,7.30
2019-04-05T05:27:41.965Z,7.30
2019-04-05T05:30:09.646Z,7.20
2019-04-05T05:32:36.265Z,7.20
2019-04-05T05:35:04.497Z,7.30
2019-04-05T05:37:32.989Z,7.40
2019-04-05T05:40:00.503Z,7.40
2019-04-05T05:42:30.357Z,7.30
2019-04-05T05:44:59.704Z,7.30
2019-04-05T05:47:25.752Z,7.30
2019-04-05T05:49:53.056Z,7.30
2019-04-05T05:52:20.747Z,7.40
2019-04-05T05:54:47.881Z,7.50
2019-04-05T05:57:17.561Z,7.40
2019-04-05T05:59:45.912Z,7.40
2019-04-05T06:02:12.007Z,7.40
2019-04-05T06:04:38.061Z,7.50
2019-04-05T06:07:13.743Z,7.40
2019-04-05T06:09:43.074Z,7.20
2019-04-05T06:12:10.152Z,7.20
2019-04-05T06:14:37.251Z,7.20
2019-04-05T06:17:05.709Z,7.10
2019-04-05T06:19:32.009Z,7.20
2019-04-05T06:21:59.246Z,7.30
2019-04-05T06:24:26.353Z,7.30
2019-04-05T06:26:52.571Z,7.30
2019-04-05T06:29:18.720Z,7.20
2019-04-05T06:31:44.780Z,7.20
2019-04-05T06:34:16.875Z,7.20
2019-04-05T06:36:43.033Z,7.20
2019-04-05T06:39:09.086Z,7.20
2019-04-05T06:41:37.088Z,7.30
2019-04-05T06:44:05.518Z,7.40
2019-04-05T06:46:37.835Z,7.50
2019-04-05T06:49:03.952Z,7.50
2019-04-05T06:51:30.860Z,7.40
2019-04-05T06:53:56.937Z,7.40
2019-04-05T06:56:22.996Z,7.50
2019-04-05T06:58:52.150Z,7.50
2019-04-05T07:01:18.384Z,7.50
2019-04-05T07:03:44.435Z,7.50
2019-04-05T07:06:10.522Z,7.50
2019-04-05T07:08:36.552Z,7.50
2019-04-05T07:11:02.642Z,7.50
2019-04-05T07:13:31.062Z,7.70
2019-04-05T07:15:57.069Z,7.80
2019-04-05T07:18:34.116Z,7.80
2019-04-05T07:20:54.260Z,7.70
2019-04-05T07:23:23.996Z,7.70
2019-04-05T07:25:50.061Z,7.60
2019-04-05T07:28:17.171Z,7.60
2019-04-05T07:30:50.780Z,7.50
2019-04-05T07:33:18.233Z,7.50
2019-04-05T07:35:44.423Z,7.50
2019-04-05T07:38:11.579Z,7.50
2019-04-05T07:40:39.500Z,7.50
2019-04-05T07:43:05.556Z,7.50
2019-04-05T07:45:33.068Z,7.50
2019-04-05T07:48:00.223Z,7.70
2019-04-05T07:50:26.468Z,7.80
2019-04-05T07:52:52.562Z,7.80
2019-04-05T07:55:19.633Z,7.80
2019-04-05T07:57:45.690Z,7.70
2019-04-05T08:00:38.267Z,7.60
2019-04-05T08:03:06.409Z,7.70
2019-04-05T08:05:32.537Z,7.70
2019-04-05T08:08:02.493Z,7.60
2019-04-05T08:10:29.562Z,7.60
2019-04-05T08:12:57.024Z,7.60
2019-04-05T08:15:28.938Z,7.60
2019-04-05T08:17:55.990Z,7.60
2019-04-05T08:20:25.355Z,7.50
2019-04-05T08:22:52.718Z,7.40
2019-04-05T08:25:20.843Z,7.30
2019-04-05T08:27:46.921Z,7.30
2019-04-05T08:30:14.179Z,7.30
2019-04-05T08:32:40.368Z,7.30
2019-04-05T08:35:06.697Z,7.40
2019-04-05T08:37:32.827Z,7.50
2019-04-05T08:39:58.881Z,7.40
2019-04-05T08:42:27.068Z,7.40
2019-04-05T08:44:54.113Z,7.40
2019-04-05T08:47:22.600Z,7.40
2019-04-05T08:49:48.809Z,7.50
2019-04-05T08:52:14.846Z,7.40
2019-04-05T08:54:40.941Z,7.40
2019-04-05T08:57:07.020Z,7.40
2019-04-05T08:59:34.047Z,7.40
2019-04-05T09:02:02.875Z,7.40
2019-04-05T09:04:29.027Z,7.30
2019-04-05T09:06:57.202Z,7.40
2019-04-05T09:09:24.565Z,7.50
2019-04-05T09:11:50.714Z,7.60
2019-04-05T09:14:16.984Z,7.70
2019-04-05T09:16:43.011Z,7.70
2019-04-05T09:19:22.786Z,7.80
2019-04-05T09:21:42.304Z,7.80
2019-04-05T09:24:08.356Z,7.90
2019-04-05T09:26:34.389Z,8.00
2019-04-05T09:29:02.463Z,8.00
2019-04-05T09:31:30.498Z,7.90
2019-04-05T09:33:56.799Z,7.90
2019-04-05T09:36:23.904Z,8.00
2019-04-05T09:38:50.195Z,8.10
2019-04-05T09:41:19.114Z,8.20
2019-04-05T09:43:45.272Z,8.20
2019-04-05T09:46:11.322Z,8.20
2019-04-05T09:48:39.410Z,8.20
2019-04-05T09:51:07.290Z,8.20
2019-04-05T09:53:34.545Z,8.30
2019-04-05T09:56:00.660Z,8.40
2019-04-05T09:58:27.096Z,8.40
2019-04-05T10:00:53.320Z,8.40
2019-04-05T10:03:21.519Z,8.40
2019-04-05T10:05:52.712Z,8.20
2019-04-05T10:08:18.857Z,8.20
2019-04-05T10:10:46.895Z,8.30
2019-04-05T10:13:14.009Z,8.30
2019-04-05T10:15:41.188Z,8.40
2019-04-05T10:18:08.191Z,8.40
2019-04-05T10:20:38.896Z,8.30
2019-04-05T10:23:08.019Z,8.20
2019-04-05T10:25:38.149Z,8.40
2019-04-05T10:28:06.227Z,8.40
2019-04-05T10:30:32.287Z,8.50
2019-04-05T10:32:59.294Z,8.60
2019-04-05T10:35:25.517Z,8.50
2019-04-05T10:37:51.528Z,8.40
2019-04-05T10:40:17.646Z,8.40
2019-04-05T10:42:44.847Z,8.50
2019-04-05T10:45:12.906Z,8.30
2019-04-05T10:47:38.993Z,8.30
2019-04-05T10:50:08.032Z,8.30
2019-04-05T10:52:34.416Z,8.40
2019-04-05T10:55:01.478Z,8.40
2019-04-05T10:57:28.955Z,8.40
2019-04-05T10:59:59.296Z,8.40
2019-04-05T11:02:27.283Z,8.40
2019-04-05T11:04:57.671Z,8.30
2019-04-05T11:07:31.497Z,8.20
2019-04-05T11:09:57.711Z,8.20
2019-04-05T11:12:24.114Z,8.30
2019-04-05T11:14:58.804Z,8.50
2019-04-05T11:17:24.899Z,8.70
2019-04-05T11:19:52.890Z,8.70
2019-04-05T11:22:20.941Z,8.70
2019-04-05T11:24:49.838Z,8.70
2019-04-05T11:27:17.780Z,8.60
2019-04-05T11:29:44.231Z,8.60
2019-04-05T11:32:11.377Z,8.70
2019-04-05T11:34:37.519Z,8.70
2019-04-05T11:37:05.221Z,8.70
2019-04-05T11:39:31.553Z,8.70
2019-04-05T11:41:57.959Z,8.80
2019-04-05T11:44:34.919Z,8.90
2019-04-05T11:47:02.559Z,8.90
2019-04-05T11:49:35.981Z,8.90
2019-04-05T11:52:02.222Z,8.80
2019-04-05T11:54:29.064Z,8.70
2019-04-05T11:56:55.099Z,8.70
2019-04-05T11:59:25.455Z,8.70
2019-04-05T12:01:56.376Z,8.80
2019-04-05T12:04:23.606Z,8.80
2019-04-05T12:06:52.553Z,8.90
2019-04-05T12:09:18.833Z,9.00
2019-04-05T12:11:46.861Z,9.10
2019-04-05T12:14:15.106Z,9.10
2019-04-05T12:16:41.348Z,9.10
2019-04-05T12:19:14.115Z,9.10
2019-04-05T12:21:42.530Z,9.00
2019-04-05T12:24:08.654Z,9.00
2019-04-05T12:26:36.768Z,9.00
2019-04-05T12:29:07.428Z,9.00
2019-04-05T12:31:33.552Z,9.00
2019-04-05T12:33:59.652Z,9.00
2019-04-05T12:36:26.600Z,9.00
2019-04-05T12:38:54.193Z,9.10
2019-04-05T12:41:22.413Z,9.20
2019-04-05T12:43:50.743Z,9.10
2019-04-05T12:46:20.580Z,9.10
2019-04-05T12:48:47.588Z,9.10
2019-04-05T12:51:15.547Z,9.00
2019-04-05T12:53:41.747Z,9.20
2019-04-05T12:56:09.912Z,9.10
2019-04-05T12:58:37.244Z,9.10
2019-04-05T13:01:03.350Z,9.10
2019-04-05T13:03:29.477Z,9.00
2019-04-05T13:05:57.701Z,9.00
2019-04-05T13:08:25.783Z,8.90
2019-04-05T13:10:55.344Z,8.90
2019-04-05T13:13:21.804Z,8.90
2019-04-05T13:15:47.835Z,8.90
2019-04-05T13:18:14.625Z,8.90
2019-04-05T13:20:40.766Z,8.90
2019-04-05T13:23:08.165Z,8.90
2019-04-05T13:25:34.334Z,8.90
2019-04-05T13:28:12.502Z,9.00
2019-04-05T13:30:28.612Z,9.20
2019-04-05T13:32:58.694Z,9.20
2019-04-05T13:35:24.725Z,9.20
2019-04-05T13:37:52.033Z,9.20
2019-04-05T13:40:20.226Z,9.10
2019-04-05T13:42:47.249Z,9.10
2019-04-05T13:45:14.525Z,9.00
2019-04-05T13:47:41.279Z,9.00
2019-04-05T13:50:11.383Z,9.00
2019-04-05T13:52:41.485Z,9.00
2019-04-05T13:55:10.348Z,9.00
2019-04-05T13:57:36.020Z,9.00
2019-04-05T14:00:09.453Z,9.00
2019-04-05T14:02:37.762Z,9.00
2019-04-05T14:05:04.557Z,9.00
2019-04-05T14:07:35.053Z,9.10
2019-04-05T14:10:12.376Z,9.10
2019-04-05T14:12:41.903Z,9.10
2019-04-05T14:15:13.704Z,9.20
2019-04-05T14:17:44.765Z,9.20
2019-04-05T14:20:12.687Z,9.20
2019-04-05T14:22:40.172Z,9.20
2019-04-05T14:25:08.490Z,9.30
2019-04-05T14:27:36.787Z,9.20
2019-04-05T14:30:06.452Z,9.20
2019-04-05T14:32:35.724Z,9.20
2019-04-05T14:35:07.927Z,9.20
2019-04-05T14:37:34.725Z,9.20
2019-04-05T14:40:14.430Z,9.20
2019-04-05T14:42:42.544Z,9.20
2019-04-05T14:45:18.709Z,9.20
2019-04-05T14:48:02.505Z,9.20
2019-04-05T14:50:32.471Z,9.30
2019-04-05T14:53:01.773Z,9.40
2019-04-05T14:55:29.824Z,9.40
2019-04-05T14:58:06.084Z,9.40
2019-04-05T15:00:36.803Z,9.40
2019-04-05T15:03:05.114Z,9.40
2019-04-05T15:05:38.431Z,9.40
2019-04-05T15:08:09.726Z,9.40
2019-04-05T15:10:36.587Z,9.40
2019-04-05T15:13:02.764Z,9.30
2019-04-05T15:15:31.431Z,9.30
2019-04-05T15:17:58.636Z,9.30
2019-04-05T15:20:27.544Z,9.20
2019-04-05T15:22:55.608Z,9.30
2019-04-05T15:25:22.733Z,9.30
2019-04-05T15:28:01.045Z,9.30
2019-04-05T15:30:34.191Z,9.30
2019-04-05T15:33:10.595Z,9.30
2019-04-05T15:35:39.758Z,9.30
2019-04-05T15:38:14.153Z,9.40
2019-04-05T15:40:41.393Z,9.40
2019-04-05T15:43:14.852Z,9.40
2019-04-05T15:45:42.806Z,9.50
2019-04-05T15:48:22.810Z,9.50
2019-04-05T15:50:59.092Z,9.50
2019-04-05T15:53:32.131Z,9.50
2019-04-05T15:56:04.944Z,9.40
2019-04-05T15:58:41.388Z,9.30
2019-04-05T16:01:08.228Z,9.30
2019-04-05T16:03:36.873Z,9.40
2019-04-05T16:06:05.618Z,9.40
2019-04-05T16:08:31.960Z,9.40
2019-04-05T16:10:59.771Z,9.40
2019-04-05T16:13:35.307Z,9.30
2019-04-05T16:16:04.467Z,9.30
2019-04-05T16:18:33.695Z,9.20
2019-04-05T16:20:59.978Z,9.20
2019-04-05T16:23:28.038Z,9.20
2019-04-05T16:25:54.116Z,9.20
2019-04-05T16:28:22.875Z,9.20
2019-04-05T16:30:51.943Z,9.20
2019-04-05T16:33:18.368Z,9.20
2019-04-05T16:35:44.751Z,9.30
2019-04-05T16:38:13.995Z,9.20
2019-04-05T16:40:40.245Z,9.30
2019-04-05T16:43:19.480Z,9.20
2019-04-05T16:45:51.441Z,9.20
2019-04-05T16:48:20.825Z,9.20
2019-04-05T16:50:48.840Z,9.20
2019-04-05T16:53:29.397Z,9.20
2019-04-05T16:55:57.481Z,9.10
2019-04-05T16:58:26.745Z,9.10
2019-04-05T17:01:01.173Z,9.00
2019-04-05T17:03:28.934Z,9.00
2019-04-05T17:06:01.168Z,9.00
2019-04-05T17:08:37.557Z,9.10
2019-04-05T17:11:06.088Z,9.10
2019-04-05T17:13:41.522Z,9.10
2019-04-05T17:16:12.751Z,9.10
2019-04-05T17:18:44.178Z,9.10
2019-04-05T17:21:16.566Z,9.10
2019-04-05T17:23:43.829Z,9.10
2019-04-05T17:26:16.830Z,9.10
2019-04-05T17:28:44.066Z,9.10
2019-04-05T17:31:12.170Z,9.00
2019-04-05T17:33:47.219Z,9.00
2019-04-05T17:36:24.501Z,9.00
2019-04-05T17:38:54.871Z,9.00
2019-04-05T17:41:22.995Z,9.00
2019-04-05T17:43:51.575Z,9.00
2019-04-05T17:46:19.082Z,8.90
2019-04-05T17:48:58.562Z,8.90
2019-04-05T17:51:36.994Z,8.90
2019-04-05T17:54:04.438Z,9.00
2019-04-05T17:56:30.782Z,8.90
2019-04-05T17:58:58.988Z,8.90
2019-04-05T18:01:26.443Z,8.90
2019-04-05T18:04:01.419Z,8.90
2019-04-05T18:06:31.620Z,8.90
2019-04-05T18:09:13.448Z,9.10
2019-04-05T18:11:50.769Z,9.10
2019-04-05T18:14:21.536Z,9.00
2019-04-05T18:16:51.909Z,9.00
2019-04-05T18:19:29.567Z,8.90
2019-04-05T18:22:01.154Z,8.90
2019-04-05T18:24:29.697Z,8.90
2019-04-05T18:26:57.599Z,8.90
2019-04-05T18:29:29.119Z,8.80
2019-04-05T18:32:08.435Z,8.80
2019-04-05T18:34:35.519Z,8.70
2019-04-05T18:37:05.405Z,8.70
2019-04-05T18:39:35.945Z,8.70
2019-04-05T18:42:03.372Z,8.70
2019-04-05T18:44:40.604Z,8.80
2019-04-05T18:47:09.576Z,8.80
2019-04-05T18:49:44.288Z,8.80
2019-04-05T18:52:11.483Z,8.80
2019-04-05T18:54:46.012Z,8.80
2019-04-05T18:57:14.384Z,8.90
2019-04-05T18:59:41.288Z,9.00
2019-04-05T19:02:07.745Z,9.00
2019-04-05T19:04:35.791Z,9.00
2019-04-05T19:07:15.095Z,9.10
2019-04-05T19:09:51.905Z,9.20
2019-04-05T19:12:29.795Z,9.30
2019-04-05T19:15:06.358Z,9.30
2019-04-05T19:17:35.811Z,9.20
2019-04-05T19:20:21.386Z,9.20
2019-04-05T19:22:52.550Z,9.10
2019-04-05T19:25:23.910Z,9.00
2019-04-05T19:27:51.253Z,9.00
2019-04-05T19:48:36.463Z,8.70
2019-04-05T19:51:13.555Z,8.70
2019-04-05T19:54:00.799Z,8.70
2019-04-05T19:56:27.343Z,8.80
2019-04-05T19:59:00.392Z,8.90
2019-04-05T20:01:27.716Z,8.70
2019-04-05T20:03:56.668Z,8.80
2019-04-05T20:06:31.603Z,8.70
2019-04-05T20:09:06.740Z,8.60
2019-04-05T20:11:35.444Z,8.70
2019-04-05T20:14:09.887Z,8.70
2019-04-05T20:17:01.727Z,8.70
2019-04-05T20:19:33.087Z,8.70
2019-04-05T20:22:01.435Z,8.80
2019-04-05T20:24:36.865Z,8.90
2019-04-05T20:27:04.310Z,9.00
2019-04-05T20:29:31.805Z,9.00
2019-04-05T20:32:07.974Z,9.00
2019-04-05T20:34:39.022Z,9.00
2019-04-05T20:37:07.866Z,9.00
2019-04-05T20:39:45.077Z,9.00
2019-04-05T20:42:12.532Z,9.00
2019-04-05T20:44:44.004Z,9.10
2019-04-05T20:47:15.042Z,9.20
2019-04-05T20:49:44.241Z,9.20
2019-04-05T20:52:22.148Z,9.20
2019-04-05T20:54:58.991Z,9.30
2019-04-05T20:57:32.411Z,9.30
2019-04-05T21:00:00.633Z,9.30
2019-04-05T21:02:37.064Z,9.30
2019-04-05T21:05:07.320Z,9.20
2019-04-05T21:07:37.645Z,9.20
2019-04-05T21:10:12.792Z,9.20
2019-04-05T21:12:52.582Z,9.20
2019-04-05T21:15:20.429Z,9.20
2019-04-05T21:17:49.676Z,9.20
2019-04-05T21:20:19.853Z,9.20
2019-04-05T21:22:52.609Z,9.20
2019-04-05T21:25:25.380Z,9.20
2019-04-05T21:28:01.275Z,9.20
2019-04-05T21:30:30.711Z,9.30
2019-04-05T21:33:04.676Z,9.30
2019-04-05T21:35:32.328Z,9.30
2019-04-05T21:38:03.380Z,9.30
2019-04-05T21:40:30.942Z,9.30
2019-04-05T21:42:57.034Z,9.30
2019-04-05T21:45:23.779Z,9.30
2019-04-05T21:47:51.858Z,9.20
2019-04-05T21:50:19.079Z,9.20
2019-04-05T21:52:46.621Z,9.30
2019-04-05T21:55:26.516Z,9.40
2019-04-05T21:57:52.589Z,9.30
2019-04-05T22:00:30.665Z,9.30
2019-04-05T22:03:00.211Z,9.30
2019-04-05T22:05:28.067Z,9.40
2019-04-05T22:07:54.894Z,9.40
2019-04-05T22:10:24.531Z,9.40
2019-04-05T22:12:51.127Z,9.40
2019-04-05T22:15:17.313Z,9.40
2019-04-05T22:17:46.734Z,9.40
2019-04-05T22:20:13.172Z,9.40
2019-04-05T22:22:46.311Z,9.40
2019-04-05T22:25:19.329Z,9.40
2019-04-05T22:27:54.178Z,9.40
2019-04-05T22:30:20.306Z,9.30
2019-04-05T22:32:46.530Z,9.30
2019-04-05T22:35:12.810Z,9.30
2019-04-05T22:37:38.989Z,9.30
2019-04-05T22:40:05.430Z,9.30
2019-04-05T22:42:31.550Z,9.40
2019-04-05T22:44:58.833Z,9.40
2019-04-05T22:47:28.411Z,9.40
2019-04-05T22:50:05.564Z,9.40
2019-04-05T22:52:34.522Z,9.30
2019-04-05T22:55:11.016Z,9.40
2019-04-05T22:57:34.748Z,9.40
2019-04-05T23:00:04.140Z,9.40
2019-04-05T23:02:30.176Z,9.30
2019-04-05T23:05:05.396Z,9.40
2019-04-05T23:07:32.943Z,9.40
2019-04-05T23:10:06.660Z,9.40
2019-04-05T23:12:32.706Z,9.40
2019-04-05T23:15:04.923Z,9.50
2019-04-05T23:17:34.405Z,9.50
2019-04-05T23:20:05.902Z,9.50
2019-04-05T23:22:34.424Z,9.60
2019-04-05T23:25:06.179Z,9.50
2019-04-05T23:27:33.861Z,9.50
2019-04-05T23:30:05.391Z,9.60
2019-04-05T23:32:32.399Z,9.60
2019-04-05T23:35:05.234Z,9.60
2019-04-05T23:37:37.920Z,9.50
2019-04-05T23:40:08.623Z,9.50
2019-04-05T23:42:43.248Z,9.40
2019-04-05T23:45:25.739Z,9.40
2019-04-05T23:47:53.227Z,9.50
2019-04-05T23:50:25.040Z,9.50
2019-04-05T23:52:55.270Z,9.50
2019-04-05T23:55:32.751Z,9.50
2019-04-05T23:57:52.082Z,9.50
